Abergwesyn, United Kingdom
Current Conditions -  °F | °C
As of 3:50 AM on Wednesday 28 Jan 2015 (Local Time) from EGOP Reporting Station
Overcast Overcast  
Wind Chill: 41°   Ceiling: 300
Heat Index: 48°   Visibility: 5mi
Dew Point: 48°   Wind: 22mph
Humidity: 100%   Direction: 220°SW
Pressure: 29.85"   Gusts: NA
Location:  52.16°N, 3.68°W
Report Text: EGOP 280350Z AUTO 22019KT 8000 // OVC003/// 09/09 Q1011
Loading
Personal Weather Stations






























Interactive Weather Map New forecast layout! Learn more

10-Day Weather Forecast

Advertisements
Track Severe Weather on mobile